Leviticus — WDC2712 — position and weather

sailwx.info

Track history (hours):
 
Tides and Currents Weather Stations Pressure Air Temp Water Temp Dewpoint Dewpoint Depression Visibility Wind Speed Wind Dir Waves Ship Positions

Leviticus

Owner: Kirby Inland Marine, LP, Houston, TX. More information available from US FCC via Universal Licensing System and Coast Guard Vessel Documentation Center.

Last reported at 2018-Feb-06 06:10 UTC. Time now 2018-Feb-17 20:21 UTC.
Position N 32°06' W 091°06'.
Warning: this ship's position is 11 days out of date.

Length 320 m; draft 2.7 m.

Type: . MMSI: 366996690.

Date/timePositionNaut miles runAvg speedWind from/ knotsBaromVisibWave heightAir tempDewpointWater temp
2018-Feb-06 06:10N 32°06' W 091°06'1 7.4
2018-Feb-06 06:00N 32°08' W 091°06'5 8.6
2018-Feb-06 05:28N 32°08' W 091°01'510.3
2018-Feb-06 05:00N 32°12' W 090°59'510.1
2018-Feb-06 04:30N 32°17' W 090°57'4 8.3
2018-Feb-06 04:00N 32°20' W 090°54'5 9.5
2018-Feb-06 03:30N 32°21' W 090°60'4 8.5
2018-Feb-06 03:00N 32°25' W 091°01'510.0
2018-Feb-06 02:30N 32°28' W 091°06'5 9.4
2018-Feb-06 02:00N 32°32' W 091°06'5 9.8
2018-Feb-06 01:30N 32°36' W 091°09'  
2018-Feb-03 03:22N 38°36' W 090°11'6 4.0
2018-Feb-03 01:51N 38°42' W 090°11'1 2.0
2018-Feb-03 01:10N 38°44' W 090°10'1 3.2
2018-Feb-03 01:00N 38°44' W 090°10'2 3.2
2018-Feb-03 00:23N 38°46' W 090°08'1 3.5
2018-Feb-03 00:00N 38°47' W 090°08'3 5.2
2018-Feb-02 23:30N 38°49' W 090°07'0 0.4
2018-Feb-02 23:00N 38°49' W 090°07'0 0.0
2018-Feb-02 22:31N 38°49' W 090°07'0 0.3
2018-Feb-02 22:00N 38°49' W 090°07'0 0.0
2018-Feb-02 21:30N 38°49' W 090°07'0 0.0
2018-Feb-02 21:00N 38°49' W 090°07'0 0.0
2018-Feb-02 20:31N 38°49' W 090°07'0 0.0
2018-Feb-02 20:00N 38°49' W 090°07'0 0.0
2018-Feb-02 19:00N 38°49' W 090°07'0 0.0
2018-Feb-02 18:30N 38°49' W 090°07'0 0.0
2018-Feb-02 17:57N 38°49' W 090°07'0 1.1
2018-Feb-02 17:31N 38°50' W 090°07'0 0.0
2018-Feb-02 17:00N 38°50' W 090°07'0 0.0
2018-Feb-02 16:27N 38°50' W 090°07'0 0.0
2018-Feb-02 15:28N 38°50' W 090°07'0 0.0
2018-Feb-02 14:30N 38°50' W 090°07'0 0.0
2018-Feb-02 14:00N 38°50' W 090°07'0 0.0
2018-Feb-02 13:30N 38°50' W 090°07'0 0.0
2018-Feb-02 13:01N 38°50' W 090°07'0 0.0
2018-Feb-02 12:30N 38°50' W 090°07'0 0.0
2018-Feb-02 12:01N 38°50' W 090°07'0 0.0
2018-Feb-02 11:30N 38°50' W 090°07'0 0.0
2018-Feb-02 11:01N 38°50' W 090°07'0 0.0
2018-Feb-02 10:31N 38°50' W 090°07'0 0.0
2018-Feb-02 10:01N 38°50' W 090°07'0 0.0
2018-Feb-02 09:31N 38°50' W 090°07'0 0.0
2018-Feb-02 09:00N 38°50' W 090°07'0 0.0
2018-Feb-02 08:30N 38°50' W 090°07'0 0.0
2018-Feb-02 08:00N 38°50' W 090°07'0 0.0
2018-Feb-02 07:30N 38°50' W 090°07'0 0.0
2018-Feb-02 07:01N 38°50' W 090°07'0 0.0
2018-Feb-02 06:31N 38°50' W 090°07'0 0.0
2018-Feb-02 06:00N 38°50' W 090°07'0 0.0
2018-Feb-02 05:30N 38°50' W 090°07'0 0.0
2018-Feb-02 05:01N 38°50' W 090°07'0 0.0
2018-Feb-02 04:31N 38°50' W 090°07'0 0.0
2018-Feb-02 04:00N 38°50' W 090°07'0 0.6
2018-Feb-02 03:30N 38°50' W 090°07'0 0.7
2018-Feb-02 03:01N 38°50' W 090°07'0 0.0
2018-Feb-02 02:31N 38°50' W 090°07'0 0.0
2018-Feb-02 01:53N 38°50' W 090°07'0 0.0
2018-Feb-02 01:29N 38°50' W 090°07'0 0.0
2018-Feb-02 01:01N 38°50' W 090°07'0 0.0
2018-Feb-02 00:30N 38°50' W 090°07'0 0.0
2018-Feb-02 00:00N 38°50' W 090°07'0 0.0
2018-Feb-01 22:55N 38°50' W 090°07'0 0.0
2018-Feb-01 22:00N 38°50' W 090°07'0 0.0
2018-Feb-01 21:29N 38°50' W 090°07'0 0.0
2018-Feb-01 19:30N 38°50' W 090°07'0 0.0
2018-Feb-01 18:50N 38°50' W 090°07'0 0.0
2018-Feb-01 18:30N 38°50' W 090°07'0 0.0
2018-Feb-01 17:54N 38°50' W 090°07'0 0.0
2018-Feb-01 17:31N 38°50' W 090°07'0 0.0
2018-Feb-01 16:56N 38°50' W 090°07'0 0.0
2018-Feb-01 16:29N 38°50' W 090°07'0 0.0
2018-Feb-01 16:01N 38°50' W 090°07'0 0.0
2018-Feb-01 15:11N 38°50' W 090°07'0 0.0
2018-Feb-01 15:00N 38°50' W 090°07'0 0.2
2018-Feb-01 13:30N 38°50' W 090°07'0 0.5
2018-Feb-01 12:52N 38°50' W 090°07'0 0.0
2018-Feb-01 12:23N 38°50' W 090°07'0 0.0
2018-Feb-01 12:00N 38°50' W 090°07'0 0.0
2018-Feb-01 11:00N 38°50' W 090°07'0 0.0
2018-Feb-01 10:30N 38°50' W 090°07'0 0.0
2018-Feb-01 10:00N 38°50' W 090°07'0 0.0
2018-Feb-01 08:59N 38°50' W 090°07'0 0.0
2018-Feb-01 08:30N 38°50' W 090°07'0 0.0
2018-Feb-01 07:30N 38°50' W 090°07'0 0.0
2018-Feb-01 07:00N 38°50' W 090°07'0 0.0
2018-Feb-01 06:30N 38°50' W 090°07'0 0.0
2018-Feb-01 06:01N 38°50' W 090°07'0 0.0
2018-Feb-01 05:27N 38°50' W 090°07'0 0.0
2018-Feb-01 05:00N 38°50' W 090°07'0 0.0
2018-Feb-01 04:31N 38°50' W 090°07'0 0.0
2018-Feb-01 04:00N 38°50' W 090°07'0 0.0
2018-Feb-01 03:00N 38°50' W 090°07'0 0.0
2018-Feb-01 02:30N 38°50' W 090°07'0 0.0
2018-Feb-01 02:00N 38°50' W 090°07'0 0.0
2018-Feb-01 01:30N 38°50' W 090°07'0 0.0
2018-Feb-01 01:00N 38°50' W 090°07'0 0.0
2018-Feb-01 00:30N 38°50' W 090°07'0 0.0
2018-Feb-01 00:00N 38°50' W 090°07'0 0.0
2018-Jan-31 23:00N 38°50' W 090°07'0 0.0
2018-Jan-31 22:30N 38°50' W 090°07'0 0.0
2018-Jan-31 18:06N 38°50' W 090°07'0 0.0
2018-Jan-31 18:00N 38°50' W 090°07'0 0.0
2018-Jan-31 17:18N 38°50' W 090°07'0 0.0
2018-Jan-31 17:00N 38°50' W 090°07'0 0.0
2018-Jan-31 16:31N 38°50' W 090°07'0 0.0
2018-Jan-31 16:00N 38°50' W 090°07'0 0.0
2018-Jan-31 15:10N 38°50' W 090°07'0 0.0
2018-Jan-31 14:38N 38°50' W 090°07'0 0.0
2018-Jan-31 14:30N 38°50' W 090°07'0 0.0
2018-Jan-31 12:17N 38°50' W 090°07'0 0.0
2018-Jan-31 12:01N 38°50' W 090°07'0 0.0
2018-Jan-31 10:25N 38°50' W 090°07'0 0.0
2018-Jan-31 10:00N 38°50' W 090°07'0 0.0
2018-Jan-31 09:09N 38°50' W 090°07'0 0.0
2018-Jan-31 08:54N 38°50' W 090°07'0 0.0
2018-Jan-31 08:31N 38°50' W 090°07'0 0.0
2018-Jan-31 07:59N 38°50' W 090°07'0 0.1
2018-Jan-31 07:29N 38°50' W 090°07'0 0.0
2018-Jan-31 07:00N 38°50' W 090°07'0 0.6
2018-Jan-31 06:29N 38°50' W 090°07'0 0.6
2018-Jan-31 06:00N 38°50' W 090°07'0 0.0
2018-Jan-31 05:18N 38°50' W 090°07'0 0.0
2018-Jan-31 04:48N 38°50' W 090°07'0 0.0
2018-Jan-31 03:02N 38°50' W 090°07'0 0.0
2018-Jan-31 02:54N 38°50' W 090°07'0 0.0
2018-Jan-30 17:54N 38°50' W 090°07'1 3.3
2018-Jan-30 17:31N 38°51' W 090°07'0 0.2
2018-Jan-30 17:00N 38°51' W 090°06'1 2.5
2018-Jan-30 16:31N 38°50' W 090°07'0 0.0
2018-Jan-30 16:00N 38°50' W 090°07'0 0.5
2018-Jan-30 15:31N 38°50' W 090°07'1 1.7
2018-Jan-30 15:00N 38°51' W 090°06'1 2.9
2018-Jan-30 14:30N 38°49' W 090°07'0 0.5
2018-Jan-30 13:30N 38°50' W 090°07'0 0.0
2018-Jan-30 13:00N 38°50' W 090°07'0 0.0
2018-Jan-30 12:30N 38°50' W 090°07'0 0.0
2018-Jan-30 12:00N 38°50' W 090°07'0 0.0
2018-Jan-30 11:30N 38°50' W 090°07'0 0.0
2018-Jan-30 10:30N 38°50' W 090°07'0 0.0
2018-Jan-30 09:30N 38°50' W 090°07'0 0.0
2018-Jan-30 09:00N 38°50' W 090°07'0 0.0
2018-Jan-30 08:30N 38°50' W 090°07'0 0.0
2018-Jan-30 08:00N 38°50' W 090°07'0 0.0
2018-Jan-30 07:30N 38°50' W 090°07'0 0.0
2018-Jan-30 07:00N 38°50' W 090°07'0 0.0
2018-Jan-30 06:30N 38°50' W 090°07'0 0.0
2018-Jan-30 06:00N 38°50' W 090°07'0 0.0
2018-Jan-30 05:30N 38°50' W 090°07'0 0.0
2018-Jan-30 05:00N 38°50' W 090°07'0 0.0
2018-Jan-30 04:30N 38°50' W 090°07'0 0.0
2018-Jan-30 04:00N 38°50' W 090°07'0 0.0
2018-Jan-30 03:30N 38°50' W 090°07'0 0.0
2018-Jan-30 03:00N 38°50' W 090°07'0 0.0
2018-Jan-30 02:30N 38°50' W 090°07'0 0.0
2018-Jan-30 02:00N 38°50' W 090°07'0 0.0
2018-Jan-30 01:30N 38°50' W 090°07'0 0.7
2018-Jan-30 01:00N 38°50' W 090°07'0 0.0
2018-Jan-30 00:30N 38°50' W 090°07'2 3.5
2018-Jan-30 00:00N 38°48' W 090°07'1 2.5
2018-Jan-29 23:29N 38°47' W 090°08'0 0.1
2018-Jan-29 23:00N 38°47' W 090°08'2 2.6
2018-Jan-29 22:11N 38°45' W 090°09'1 5.7
2018-Jan-29 22:00N 38°44' W 090°10'2 2.9
2018-Jan-29 21:16N 38°42' W 090°11'1 1.9
2018-Jan-29 20:59N 38°41' W 090°11'  
Track history (hours):
 
Tides and Currents Weather Stations Pressure Air Temp Water Temp Dewpoint Dewpoint Depression Visibility Wind Speed Wind Dir Waves Ship Positions

Leviticus

Owner: Kirby Inland Marine, LP, Houston, TX. More information available from US FCC via Universal Licensing System and Coast Guard Vessel Documentation Center.

Last reported at 2018-Feb-06 06:10 UTC. Time now 2018-Feb-17 20:21 UTC.
Position N 32°06' W 091°06'.
Warning: this ship's position is 11 days out of date.

Length 320 m; draft 2.7 m.

Type: . MMSI: 366996690.

Date/timePositionNaut miles runAvg speedWind from/ knotsBaromVisibWave heightAir tempDewpointWater temp
2018-Feb-06 06:10N 32°06' W 091°06'1 7.4
2018-Feb-06 06:00N 32°08' W 091°06'5 8.6
2018-Feb-06 05:28N 32°08' W 091°01'510.3
2018-Feb-06 05:00N 32°12' W 090°59'510.1
2018-Feb-06 04:30N 32°17' W 090°57'4 8.3
2018-Feb-06 04:00N 32°20' W 090°54'5 9.5
2018-Feb-06 03:30N 32°21' W 090°60'4 8.5
2018-Feb-06 03:00N 32°25' W 091°01'510.0
2018-Feb-06 02:30N 32°28' W 091°06'5 9.4
2018-Feb-06 02:00N 32°32' W 091°06'5 9.8
2018-Feb-06 01:30N 32°36' W 091°09'  
2018-Feb-03 03:22N 38°36' W 090°11'6 4.0
2018-Feb-03 01:51N 38°42' W 090°11'1 2.0
2018-Feb-03 01:10N 38°44' W 090°10'1 3.2
2018-Feb-03 01:00N 38°44' W 090°10'2 3.2
2018-Feb-03 00:23N 38°46' W 090°08'1 3.5
2018-Feb-03 00:00N 38°47' W 090°08'3 5.2
2018-Feb-02 23:30N 38°49' W 090°07'0 0.4
2018-Feb-02 23:00N 38°49' W 090°07'0 0.0
2018-Feb-02 22:31N 38°49' W 090°07'0 0.3
2018-Feb-02 22:00N 38°49' W 090°07'0 0.0
2018-Feb-02 21:30N 38°49' W 090°07'0 0.0
2018-Feb-02 21:00N 38°49' W 090°07'0 0.0
2018-Feb-02 20:31N 38°49' W 090°07'0 0.0
2018-Feb-02 20:00N 38°49' W 090°07'0 0.0
2018-Feb-02 19:00N 38°49' W 090°07'0 0.0
2018-Feb-02 18:30N 38°49' W 090°07'0 0.0
2018-Feb-02 17:57N 38°49' W 090°07'0 1.1
2018-Feb-02 17:31N 38°50' W 090°07'0 0.0
2018-Feb-02 17:00N 38°50' W 090°07'0 0.0
2018-Feb-02 16:27N 38°50' W 090°07'0 0.0
2018-Feb-02 15:28N 38°50' W 090°07'0 0.0
2018-Feb-02 14:30N 38°50' W 090°07'0 0.0
2018-Feb-02 14:00N 38°50' W 090°07'0 0.0
2018-Feb-02 13:30N 38°50' W 090°07'0 0.0
2018-Feb-02 13:01N 38°50' W 090°07'0 0.0
2018-Feb-02 12:30N 38°50' W 090°07'0 0.0
2018-Feb-02 12:01N 38°50' W 090°07'0 0.0
2018-Feb-02 11:30N 38°50' W 090°07'0 0.0
2018-Feb-02 11:01N 38°50' W 090°07'0 0.0
2018-Feb-02 10:31N 38°50' W 090°07'0 0.0
2018-Feb-02 10:01N 38°50' W 090°07'0 0.0
2018-Feb-02 09:31N 38°50' W 090°07'0 0.0
2018-Feb-02 09:00N 38°50' W 090°07'0 0.0
2018-Feb-02 08:30N 38°50' W 090°07'0 0.0
2018-Feb-02 08:00N 38°50' W 090°07'0 0.0
2018-Feb-02 07:30N 38°50' W 090°07'0 0.0
2018-Feb-02 07:01N 38°50' W 090°07'0 0.0
2018-Feb-02 06:31N 38°50' W 090°07'0 0.0
2018-Feb-02 06:00N 38°50' W 090°07'0 0.0
2018-Feb-02 05:30N 38°50' W 090°07'0 0.0
2018-Feb-02 05:01N 38°50' W 090°07'0 0.0
2018-Feb-02 04:31N 38°50' W 090°07'0 0.0
2018-Feb-02 04:00N 38°50' W 090°07'0 0.6
2018-Feb-02 03:30N 38°50' W 090°07'0 0.7
2018-Feb-02 03:01N 38°50' W 090°07'0 0.0
2018-Feb-02 02:31N 38°50' W 090°07'0 0.0
2018-Feb-02 01:53N 38°50' W 090°07'0 0.0
2018-Feb-02 01:29N 38°50' W 090°07'0 0.0
2018-Feb-02 01:01N 38°50' W 090°07'0 0.0
2018-Feb-02 00:30N 38°50' W 090°07'0 0.0
2018-Feb-02 00:00N 38°50' W 090°07'0 0.0
2018-Feb-01 22:55N 38°50' W 090°07'0 0.0
2018-Feb-01 22:00N 38°50' W 090°07'0 0.0
2018-Feb-01 21:29N 38°50' W 090°07'0 0.0
2018-Feb-01 19:30N 38°50' W 090°07'0 0.0
2018-Feb-01 18:50N 38°50' W 090°07'0 0.0
2018-Feb-01 18:30N 38°50' W 090°07'0 0.0
2018-Feb-01 17:54N 38°50' W 090°07'0 0.0
2018-Feb-01 17:31N 38°50' W 090°07'0 0.0
2018-Feb-01 16:56N 38°50' W 090°07'0 0.0
2018-Feb-01 16:29N 38°50' W 090°07'0 0.0
2018-Feb-01 16:01N 38°50' W 090°07'0 0.0
2018-Feb-01 15:11N 38°50' W 090°07'0 0.0
2018-Feb-01 15:00N 38°50' W 090°07'0 0.2
2018-Feb-01 13:30N 38°50' W 090°07'0 0.5
2018-Feb-01 12:52N 38°50' W 090°07'0 0.0
2018-Feb-01 12:23N 38°50' W 090°07'0 0.0
2018-Feb-01 12:00N 38°50' W 090°07'0 0.0
2018-Feb-01 11:00N 38°50' W 090°07'0 0.0
2018-Feb-01 10:30N 38°50' W 090°07'0 0.0
2018-Feb-01 10:00N 38°50' W 090°07'0 0.0
2018-Feb-01 08:59N 38°50' W 090°07'0 0.0
2018-Feb-01 08:30N 38°50' W 090°07'0 0.0
2018-Feb-01 07:30N 38°50' W 090°07'0 0.0
2018-Feb-01 07:00N 38°50' W 090°07'0 0.0
2018-Feb-01 06:30N 38°50' W 090°07'0 0.0
2018-Feb-01 06:01N 38°50' W 090°07'0 0.0
2018-Feb-01 05:27N 38°50' W 090°07'0 0.0
2018-Feb-01 05:00N 38°50' W 090°07'0 0.0
2018-Feb-01 04:31N 38°50' W 090°07'0 0.0
2018-Feb-01 04:00N 38°50' W 090°07'0 0.0
2018-Feb-01 03:00N 38°50' W 090°07'0 0.0
2018-Feb-01 02:30N 38°50' W 090°07'0 0.0
2018-Feb-01 02:00N 38°50' W 090°07'0 0.0
2018-Feb-01 01:30N 38°50' W 090°07'0 0.0
2018-Feb-01 01:00N 38°50' W 090°07'0 0.0
2018-Feb-01 00:30N 38°50' W 090°07'0 0.0
2018-Feb-01 00:00N 38°50' W 090°07'0 0.0
2018-Jan-31 23:00N 38°50' W 090°07'0 0.0
2018-Jan-31 22:30N 38°50' W 090°07'0 0.0
2018-Jan-31 18:06N 38°50' W 090°07'0 0.0
2018-Jan-31 18:00N 38°50' W 090°07'0 0.0
2018-Jan-31 17:18N 38°50' W 090°07'0 0.0
2018-Jan-31 17:00N 38°50' W 090°07'0 0.0
2018-Jan-31 16:31N 38°50' W 090°07'0 0.0
2018-Jan-31 16:00N 38°50' W 090°07'0 0.0
2018-Jan-31 15:10N 38°50' W 090°07'0 0.0
2018-Jan-31 14:38N 38°50' W 090°07'0 0.0
2018-Jan-31 14:30N 38°50' W 090°07'0 0.0
2018-Jan-31 12:17N 38°50' W 090°07'0 0.0
2018-Jan-31 12:01N 38°50' W 090°07'0 0.0
2018-Jan-31 10:25N 38°50' W 090°07'0 0.0
2018-Jan-31 10:00N 38°50' W 090°07'0 0.0
2018-Jan-31 09:09N 38°50' W 090°07'0 0.0
2018-Jan-31 08:54N 38°50' W 090°07'0 0.0
2018-Jan-31 08:31N 38°50' W 090°07'0 0.0
2018-Jan-31 07:59N 38°50' W 090°07'0 0.1
2018-Jan-31 07:29N 38°50' W 090°07'0 0.0
2018-Jan-31 07:00N 38°50' W 090°07'0 0.6
2018-Jan-31 06:29N 38°50' W 090°07'0 0.6
2018-Jan-31 06:00N 38°50' W 090°07'0 0.0
2018-Jan-31 05:18N 38°50' W 090°07'0 0.0
2018-Jan-31 04:48N 38°50' W 090°07'0 0.0
2018-Jan-31 03:02N 38°50' W 090°07'0 0.0
2018-Jan-31 02:54N 38°50' W 090°07'0 0.0
2018-Jan-30 17:54N 38°50' W 090°07'1 3.3
2018-Jan-30 17:31N 38°51' W 090°07'0 0.2
2018-Jan-30 17:00N 38°51' W 090°06'1 2.5
2018-Jan-30 16:31N 38°50' W 090°07'0 0.0
2018-Jan-30 16:00N 38°50' W 090°07'0 0.5
2018-Jan-30 15:31N 38°50' W 090°07'1 1.7
2018-Jan-30 15:00N 38°51' W 090°06'1 2.9
2018-Jan-30 14:30N 38°49' W 090°07'0 0.5
2018-Jan-30 13:30N 38°50' W 090°07'0 0.0
2018-Jan-30 13:00N 38°50' W 090°07'0 0.0
2018-Jan-30 12:30N 38°50' W 090°07'0 0.0
2018-Jan-30 12:00N 38°50' W 090°07'0 0.0
2018-Jan-30 11:30N 38°50' W 090°07'0 0.0
2018-Jan-30 10:30N 38°50' W 090°07'0 0.0
2018-Jan-30 09:30N 38°50' W 090°07'0 0.0
2018-Jan-30 09:00N 38°50' W 090°07'0 0.0
2018-Jan-30 08:30N 38°50' W 090°07'0 0.0
2018-Jan-30 08:00N 38°50' W 090°07'0 0.0
2018-Jan-30 07:30N 38°50' W 090°07'0 0.0
2018-Jan-30 07:00N 38°50' W 090°07'0 0.0
2018-Jan-30 06:30N 38°50' W 090°07'0 0.0
2018-Jan-30 06:00N 38°50' W 090°07'0 0.0
2018-Jan-30 05:30N 38°50' W 090°07'0 0.0
2018-Jan-30 05:00N 38°50' W 090°07'0 0.0
2018-Jan-30 04:30N 38°50' W 090°07'0 0.0
2018-Jan-30 04:00N 38°50' W 090°07'0 0.0
2018-Jan-30 03:30N 38°50' W 090°07'0 0.0
2018-Jan-30 03:00N 38°50' W 090°07'0 0.0
2018-Jan-30 02:30N 38°50' W 090°07'0 0.0
2018-Jan-30 02:00N 38°50' W 090°07'0 0.0
2018-Jan-30 01:30N 38°50' W 090°07'0 0.7
2018-Jan-30 01:00N 38°50' W 090°07'0 0.0
2018-Jan-30 00:30N 38°50' W 090°07'2 3.5
2018-Jan-30 00:00N 38°48' W 090°07'1 2.5
2018-Jan-29 23:29N 38°47' W 090°08'0 0.1
2018-Jan-29 23:00N 38°47' W 090°08'2 2.6
2018-Jan-29 22:11N 38°45' W 090°09'1 5.7
2018-Jan-29 22:00N 38°44' W 090°10'2 2.9
2018-Jan-29 21:16N 38°42' W 090°11'1 1.9
2018-Jan-29 20:59N 38°41' W 090°11'  

Dump ship's entire track history